Terminal Aerodrome Forecast
Issued by NWS

Home | Current Version | Previous Version | Text Only | Print | Product List | Glossary On
Versions: 1 2 3 4 5 6 7 8 9 10 11 12 13 14 15 16 17 18 19
314
FTUS43 KSGF 262359 CCA
TAFJLN
TAF COR
KJLN 262359Z 2700/2724 19006KT 6SM -SHRA VCTS SCT030 OVC060CB
     FM270100 18005KT P6SM VCSH SCT050 BKN100
     FM270600 16005KT P6SM BKN140
     FM271700 21006KT P6SM VCTS SCT040CB BKN080=

USA.gov is the U.S. government's official web portal to all federal, state and local government web resources and services.